Time;durP1;ratioP1;P1;durP2;ratioP2;P2;SDS_P1;SDS_P2;PMS_P1;PMS_P2;Temp;Humidity;BMP_temperature;BMP_pressure;BME280_temperature;BME280_humidity;BME280_pressure;Samples;Min_cycle;Max_cycle;Signal;HPM_P1;HPM_P2
2022/05/22 00:01:49;;;;;;;15.47;5.73;;;12.20;99.90;;;;;;5093390;28;20281;-70
2022/05/22 00:04:15;;;;;;;13.53;5.23;;;12.20;99.90;;;;;;5091803;28;20294;-71
2022/05/22 00:06:41;;;;;;;15.37;6.00;;;12.10;99.90;;;;;;5093424;28;20500;-70
2022/05/22 00:09:07;;;;;;;13.53;5.83;;;12.10;99.90;;;;;;5092248;28;20289;-70
2022/05/22 00:11:33;;;;;;;10.43;5.97;;;12.10;99.90;;;;;;5093185;28;20472;-71
2022/05/22 00:13:59;;;;;;;12.87;6.10;;;12.10;99.90;;;;;;5093552;28;20044;-71
2022/05/22 00:16:36;;;;;;;14.10;6.20;;;12.00;99.90;;;;;;5091268;28;20071;-71
2022/05/22 00:19:07;;;;;;;16.00;6.43;;;12.20;99.90;;;;;;5093128;28;20123;-70
2022/05/22 00:21:33;;;;;;;11.67;5.83;;;12.00;99.90;;;;;;5092942;28;20278;-70
2022/05/22 00:23:59;;;;;;;13.93;5.37;;;11.90;99.90;;;;;;5093014;28;20305;-70
2022/05/22 00:26:25;;;;;;;12.37;5.73;;;11.90;99.90;;;;;;5091610;28;20274;-71
2022/05/22 00:28:51;;;;;;;12.23;5.43;;;12.00;99.90;;;;;;5091979;28;20036;-70
2022/05/22 00:31:17;;;;;;;13.03;5.43;;;11.90;99.90;;;;;;5092746;28;20499;-71
2022/05/22 00:33:42;;;;;;;10.47;5.57;;;11.90;99.90;;;;;;5092137;28;20290;-71
2022/05/22 00:36:09;;;;;;;12.77;5.67;;;11.90;99.90;;;;;;5093088;28;20058;-71
2022/05/22 00:38:35;;;;;;;14.67;6.03;;;11.90;99.90;;;;;;5092712;28;20056;-71
2022/05/22 00:41:01;;;;;;;11.47;5.57;;;11.80;99.90;;;;;;5093073;28;20690;-71
2022/05/22 00:43:29;;;;;;;14.73;5.83;;;11.80;99.90;;;;;;5092611;28;20346;-71
2022/05/22 00:45:56;;;;;;;12.70;5.73;;;11.70;99.90;;;;;;5091841;28;20065;-71
2022/05/22 00:48:23;;;;;;;13.67;5.73;;;11.80;99.90;;;;;;5092699;28;20278;-71
2022/05/22 00:50:49;;;;;;;14.53;6.67;;;11.70;99.90;;;;;;5091987;28;20818;-70
2022/05/22 00:53:16;;;;;;;13.73;6.23;;;11.70;99.90;;;;;;5092875;28;20317;-71
2022/05/22 00:55:41;;;;;;;14.17;6.63;;;11.70;99.90;;;;;;5091534;28;20623;-71
2022/05/22 00:58:14;;;;;;;14.37;6.27;;;11.60;99.90;;;;;;5091810;28;20285;-70
2022/05/22 01:00:40;;;;;;;11.73;6.10;;;11.60;99.90;;;;;;5092376;28;20052;-71
2022/05/22 01:03:28;;;;;;;21.47;6.83;;;11.60;99.90;;;;;;5092920;28;20298;-71
2022/05/22 01:05:55;;;;;;;14.03;6.43;;;11.60;99.90;;;;;;5092771;28;20274;-71
2022/05/22 01:08:22;;;;;;;12.93;6.00;;;11.70;99.90;;;;;;5091465;28;20286;-72
2022/05/22 01:10:53;;;;;;;12.77;6.90;;;11.60;99.90;;;;;;5091379;28;20305;-71
2022/05/22 01:13:24;;;;;;;12.17;6.13;;;11.60;99.90;;;;;;5092515;28;20876;-71
2022/05/22 01:15:50;;;;;;;10.63;6.37;;;11.50;99.90;;;;;;5092650;28;20319;-71
2022/05/22 01:18:16;;;;;;;13.10;5.77;;;11.60;99.90;;;;;;5092950;28;20361;-71
2022/05/22 01:20:52;;;;;;;14.10;6.40;;;11.60;99.90;;;;;;5092286;28;20554;-71
2022/05/22 01:23:19;;;;;;;12.00;6.17;;;11.60;99.90;;;;;;5091294;28;20051;-71
2022/05/22 01:25:45;;;;;;;14.30;6.83;;;11.50;99.90;;;;;;5090991;28;20282;-71
2022/05/22 01:28:14;;;;;;;13.57;6.53;;;11.50;99.90;;;;;;5094931;28;20291;-71
2022/05/22 01:30:40;;;;;;;13.90;7.30;;;11.50;99.90;;;;;;5096218;28;20044;-71
2022/05/22 01:33:06;;;;;;;11.10;6.07;;;11.40;99.90;;;;;;5096555;28;20278;-71
2022/05/22 01:35:35;;;;;;;12.77;6.33;;;11.40;99.90;;;;;;5095989;28;20123;-71
2022/05/22 01:38:02;;;;;;;12.17;6.47;;;11.30;99.90;;;;;;5096327;28;20463;-71
2022/05/22 01:40:28;;;;;;;12.13;5.93;;;11.40;99.90;;;;;;5095715;28;20603;-71
2022/05/22 01:42:54;;;;;;;14.80;6.23;;;11.40;99.90;;;;;;5095823;28;20353;-71
2022/05/22 01:45:23;;;;;;;15.17;6.90;;;11.30;99.90;;;;;;5096160;28;20353;-71
2022/05/22 01:47:49;;;;;;;13.97;6.77;;;11.30;99.90;;;;;;5095804;28;20488;-71
2022/05/22 01:50:15;;;;;;;14.97;6.53;;;11.30;99.90;;;;;;5095968;28;20788;-71
2022/05/22 01:52:42;;;;;;;13.33;5.97;;;11.30;99.90;;;;;;5095618;28;20317;-71
2022/05/22 01:55:09;;;;;;;12.03;5.67;;;11.10;99.90;;;;;;5077815;28;20282;-70
2022/05/22 01:57:35;;;;;;;15.37;6.07;;;11.30;99.90;;;;;;5094421;28;20290;-71
2022/05/22 02:00:03;;;;;;;16.53;7.10;;;11.20;99.90;;;;;;5095840;28;20282;-70
2022/05/22 02:02:28;;;;;;;12.97;6.77;;;11.30;99.90;;;;;;5095668;28;20055;-71
2022/05/22 02:04:55;;;;;;;12.57;6.30;;;;;;;;;;5094453;28;20270;-70
2022/05/22 02:10:05;;;;;;;9.53;6.20;;;;;;;;;;5095728;28;20360;-70
2022/05/22 02:12:32;;;;;;;9.80;5.60;;;;;;;;;;5095404;28;20290;-71
2022/05/22 02:14:58;;;;;;;12.70;5.67;;;;;;;;;;5095823;28;20366;-70
2022/05/22 02:17:24;;;;;;;12.03;6.10;;;;;;;;;;5094357;28;20293;-70
2022/05/22 02:19:50;;;;;;;13.03;5.80;;;;;;;;;;5094927;28;20278;-70
2022/05/22 02:22:16;;;;;;;12.13;5.83;;;;;;;;;;5094523;28;20299;-71
2022/05/22 02:24:42;;;;;;;13.13;6.70;;;;;;;;;;5095152;28;20672;-71
2022/05/22 02:27:08;;;;;;;14.57;7.23;;;11.00;99.90;;;;;;5095158;28;20773;-70
2022/05/22 02:29:35;;;;;;;11.40;6.10;;;11.00;99.90;;;;;;5095165;28;20323;-71
2022/05/22 02:32:01;;;;;;;13.17;5.80;;;11.00;99.90;;;;;;5095126;28;20052;-70
2022/05/22 02:34:27;;;;;;;15.17;6.53;;;11.00;99.90;;;;;;5095045;28;20289;-71
2022/05/22 02:36:52;;;;;;;15.33;6.87;;;11.00;99.90;;;;;;5095166;28;20286;-70
2022/05/22 02:39:18;;;;;;;15.20;6.60;;;11.00;99.90;;;;;;5076902;28;20108;-70
2022/05/22 02:41:45;;;;;;;10.93;5.43;;;10.90;99.90;;;;;;5094883;28;20563;-71
2022/05/22 02:44:10;;;;;;;15.03;6.63;;;10.90;99.90;;;;;;5094924;28;20048;-71
2022/05/22 02:46:36;;;;;;;12.93;7.93;;;10.80;99.90;;;;;;5093683;28;20298;-71
2022/05/22 02:49:02;;;;;;;14.43;6.87;;;10.80;99.90;;;;;;5094846;28;20098;-71
2022/05/22 02:51:28;;;;;;;13.63;6.73;;;10.80;99.90;;;;;;5094693;28;20052;-70
2022/05/22 02:53:54;;;;;;;10.27;5.97;;;10.70;99.90;;;;;;5093412;28;20535;-70
2022/05/22 02:56:24;;;;;;;11.43;5.90;;;10.70;99.90;;;;;;5094988;28;20040;-70
2022/05/22 02:58:50;;;;;;;15.67;6.23;;;10.70;99.90;;;;;;5094329;28;20557;-71
2022/05/22 03:01:16;;;;;;;14.07;5.60;;;10.60;99.90;;;;;;5094691;28;20274;-71
2022/05/22 03:03:42;;;;;;;13.30;5.57;;;10.60;99.90;;;;;;5092955;28;20086;-71
2022/05/22 03:08:52;;;;;;;12.20;5.93;;;10.60;99.90;;;;;;5094353;28;20051;-71
2022/05/22 03:11:18;;;;;;;11.80;5.90;;;10.50;99.90;;;;;;5093782;28;20278;-71
2022/05/22 03:13:44;;;;;;;14.27;6.17;;;10.50;99.90;;;;;;5094005;28;20048;-71
2022/05/22 03:16:09;;;;;;;13.60;7.47;;;10.50;99.90;;;;;;5094281;28;20048;-71
2022/05/22 03:18:35;;;;;;;11.47;5.83;;;10.50;99.90;;;;;;5094190;28;20048;-77
2022/05/22 03:21:01;;;;;;;13.23;6.50;;;10.40;99.90;;;;;;5094277;28;20044;-71
2022/05/22 03:23:26;;;;;;;12.87;5.97;;;10.50;99.90;;;;;;5094234;28;20150;-70
2022/05/22 03:25:52;;;;;;;10.97;5.77;;;10.50;99.90;;;;;;5092708;28;20056;-71
2022/05/22 03:28:18;;;;;;;13.37;6.73;;;10.50;99.90;;;;;;5094074;28;20040;-71
2022/05/22 03:30:44;;;;;;;13.53;6.53;;;10.50;99.90;;;;;;5093660;28;20048;-71
2022/05/22 03:33:10;;;;;;;12.77;6.80;;;10.50;99.90;;;;;;5092889;28;20054;-71
2022/05/22 03:35:36;;;;;;;13.37;6.47;;;10.50;99.90;;;;;;5094039;28;20131;-71
2022/05/22 03:38:03;;;;;;;10.80;5.90;;;10.50;99.90;;;;;;5093741;28;20472;-70
2022/05/22 03:40:29;;;;;;;12.77;6.20;;;10.50;99.90;;;;;;5093920;28;20059;-71
2022/05/22 03:42:54;;;;;;;11.67;6.67;;;10.50;99.90;;;;;;5092000;28;20302;-71
2022/05/22 03:45:20;;;;;;;11.27;6.17;;;10.50;99.90;;;;;;5092656;28;20048;-71
2022/05/22 03:47:47;;;;;;;13.83;6.10;;;10.50;99.90;;;;;;5093319;28;20047;-71
2022/05/22 03:50:14;;;;;;;12.40;6.27;;;10.50;99.90;;;;;;5091722;28;20343;-70
2022/05/22 03:52:43;;;;;;;13.17;6.10;;;10.50;99.90;;;;;;5093428;28;20047;-73
2022/05/22 03:55:11;;;;;;;10.93;5.93;;;10.50;99.90;;;;;;5092828;28;20286;-70
2022/05/22 03:57:37;;;;;;;11.07;6.20;;;10.50;99.90;;;;;;5093564;28;20282;-70
2022/05/22 04:00:08;;;;;;;10.10;6.57;;;10.50;99.90;;;;;;5091983;28;20290;-71
2022/05/22 04:02:34;;;;;;;11.43;6.80;;;10.60;99.90;;;;;;5093791;28;20048;-71
2022/05/22 04:05:00;;;;;;;14.30;6.83;;;10.60;99.90;;;;;;5093172;28;21142;-71
2022/05/22 04:07:26;;;;;;;13.70;7.00;;;10.60;99.90;;;;;;5092643;28;20286;-71
2022/05/22 04:09:52;;;;;;;14.87;7.67;;;10.50;99.90;;;;;;5091806;28;20285;-71
2022/05/22 04:12:18;;;;;;;12.90;7.53;;;10.60;99.90;;;;;;5092067;28;20085;-71
2022/05/22 04:14:44;;;;;;;13.17;6.90;;;10.60;99.90;;;;;;5092905;28;20075;-71
2022/05/22 04:17:10;;;;;;;18.20;7.43;;;10.70;99.90;;;;;;5093634;28;20051;-71
2022/05/22 04:19:37;;;;;;;15.37;7.47;;;10.70;99.90;;;;;;5093315;28;20051;-71
2022/05/22 04:22:04;;;;;;;12.80;7.37;;;10.70;99.90;;;;;;5092987;28;20282;-71
2022/05/22 04:27:14;;;;;;;13.17;7.20;;;10.80;99.90;;;;;;5093030;28;20785;-71
2022/05/22 04:29:41;;;;;;;15.93;7.33;;;10.80;99.90;;;;;;5093217;28;20305;-71
2022/05/22 04:32:07;;;;;;;14.23;6.93;;;10.90;99.90;;;;;;5091828;28;20105;-71
2022/05/22 04:34:33;;;;;;;13.57;7.00;;;11.00;99.90;;;;;;5092997;28;20309;-71
2022/05/22 04:36:58;;;;;;;13.60;7.63;;;11.00;99.90;;;;;;5092735;28;20321;-71
2022/05/22 04:39:24;;;;;;;12.13;6.23;;;11.10;99.90;;;;;;5108741;28;20051;-71
2022/05/22 04:41:50;;;;;;;17.03;7.03;;;11.10;99.90;;;;;;5092530;28;20057;-71
2022/05/22 04:44:16;;;;;;;15.90;7.20;;;11.20;99.90;;;;;;5093103;28;20162;-71
2022/05/22 04:46:42;;;;;;;12.17;6.30;;;11.20;99.90;;;;;;5092118;28;20483;-71
2022/05/22 04:49:07;;;;;;;12.60;6.87;;;11.20;99.90;;;;;;5092648;28;20052;-71
2022/05/22 04:51:33;;;;;;;14.17;7.20;;;11.30;99.90;;;;;;5092859;28;20044;-71
2022/05/22 04:53:58;;;;;;;14.90;8.07;;;11.30;99.90;;;;;;5091350;28;20044;-71
2022/05/22 04:56:24;;;;;;;11.37;6.60;;;11.30;99.90;;;;;;5092642;28;20182;-71
2022/05/22 04:58:50;;;;;;;14.17;7.43;;;11.30;99.90;;;;;;5092592;28;20048;-71
2022/05/22 05:01:16;;;;;;;15.20;7.17;;;11.40;99.90;;;;;;5094213;28;20044;-71
2022/05/22 05:03:42;;;;;;;17.97;8.10;;;11.50;99.90;;;;;;5096961;28;20374;-71
2022/05/22 05:06:08;;;;;;;13.93;6.87;;;11.60;99.90;;;;;;5096598;28;20762;-71
2022/05/22 05:08:34;;;;;;;14.33;7.27;;;11.70;99.90;;;;;;5095785;28;20434;-71
2022/05/22 05:11:01;;;;;;;14.17;7.77;;;11.80;99.90;;;;;;5096313;28;20066;-71
2022/05/22 05:13:27;;;;;;;11.97;7.13;;;11.90;99.90;;;;;;5096898;28;20044;-71
2022/05/22 05:16:01;;;;;;;11.67;7.17;;;12.10;99.90;;;;;;5095255;28;20685;-72
2022/05/22 05:18:27;;;;;;;13.53;7.33;;;12.20;99.90;;;;;;5096691;28;20766;-72
2022/05/22 05:20:54;;;;;;;14.13;6.90;;;12.40;99.90;;;;;;5096341;28;20282;-72
2022/05/22 05:23:20;;;;;;;12.93;6.97;;;12.50;99.90;;;;;;5096327;28;20700;-72
2022/05/22 05:25:46;;;;;;;13.80;7.83;;;12.60;99.90;;;;;;5096765;28;20278;-71
2022/05/22 05:28:11;;;;;;;15.93;7.63;;;12.70;99.90;;;;;;5096339;28;20044;-71
2022/05/22 05:30:37;;;;;;;16.73;7.67;;;12.80;99.90;;;;;;5096599;28;20472;-71
2022/05/22 05:33:03;;;;;;;15.17;6.60;;;13.00;99.90;;;;;;5096075;28;20082;-71
2022/05/22 05:35:29;;;;;;;15.17;6.70;;;13.20;99.90;;;;;;5095421;28;20043;-72
2022/05/22 05:37:54;;;;;;;14.67;6.77;;;13.40;99.90;;;;;;5095927;28;20051;-72
2022/05/22 05:40:20;;;;;;;17.57;6.87;;;13.50;99.90;;;;;;5078499;28;20043;-72
2022/05/22 05:42:48;;;;;;;14.27;6.37;;;;;;;;;;5096087;28;20059;-72
2022/05/22 05:45:15;;;;;;;13.67;6.10;;;14.40;99.90;;;;;;5096085;28;20056;-72
2022/05/22 05:47:44;;;;;;;13.27;6.93;;;14.60;99.90;;;;;;5096048;28;20293;-72
2022/05/22 05:50:10;;;;;;;10.80;5.30;;;15.80;99.90;;;;;;5095715;28;20286;-72
2022/05/22 05:52:36;;;;;;;14.80;5.70;;;17.20;99.90;;;;;;5094642;28;20375;-72
2022/05/22 05:55:03;;;;;;;11.57;5.83;;;18.60;99.90;;;;;;5095719;28;20340;-73
2022/05/22 05:57:29;;;;;;;12.53;5.17;;;19.80;99.90;;;;;;5094850;28;20048;-73
2022/05/22 05:59:55;;;;;;;10.10;4.73;;;20.60;99.90;;;;;;5094582;28;20130;-73
2022/05/22 06:02:21;;;;;;;12.00;4.97;;;21.30;99.90;;;;;;5094534;28;20039;-72
2022/05/22 06:04:47;;;;;;;12.33;5.00;;;;;;;;;;5095835;28;20071;-72
2022/05/22 06:07:12;;;;;;;11.37;4.63;;;22.60;99.90;;;;;;5077454;28;20087;-72
2022/05/22 06:09:38;;;;;;;11.07;4.80;;;23.00;97.40;;;;;;5095825;28;20144;-72
2022/05/22 06:12:05;;;;;;;10.37;5.10;;;23.50;93.20;;;;;;5095232;28;20498;-73
2022/05/22 06:14:31;;;;;;;11.63;5.13;;;24.10;92.00;;;;;;5094965;28;20048;-72
2022/05/22 06:16:57;;;;;;;11.10;4.60;;;24.60;75.60;;;;;;5094029;28;20128;-73
2022/05/22 06:22:08;;;;;;;10.68;4.68;;;25.40;64.50;;;;;;5095356;28;20131;-70
2022/05/22 06:24:35;;;;;;;11.70;5.00;;;25.50;61.00;;;;;;5095349;28;20081;-71
2022/05/22 06:27:01;;;;;;;11.40;4.40;;;25.90;59.50;;;;;;5095085;28;20056;-73
2022/05/22 06:29:27;;;;;;;11.23;4.17;;;;;;;;;;5095543;28;20090;-71
2022/05/22 06:31:53;;;;;;;10.53;4.10;;;26.50;54.70;;;;;;5094139;28;20079;-71
2022/05/22 06:34:22;;;;;;;10.83;4.30;;;;;;;;;;5094787;28;20044;-71
2022/05/22 06:36:51;;;;;;;8.80;3.80;;;27.60;47.90;;;;;;5095300;28;20105;-71
2022/05/22 06:42:03;;;;;;;9.53;3.37;;;27.90;66.80;;;;;;5094930;28;20052;-71
2022/05/22 06:44:28;;;;;;;11.37;4.27;;;28.00;70.00;;;;;;5094938;28;20502;-71
2022/05/22 06:46:54;;;;;;;9.20;3.87;;;;;;;;;;5094873;28;20064;-71
2022/05/22 06:49:20;;;;;;;9.52;3.67;;;;;;;;;;5093644;28;20054;-71
2022/05/22 06:51:47;;;;;;;11.77;3.75;;;;;;;;;;5094906;28;20048;-71
2022/05/22 06:54:13;;;;;;;10.85;3.90;;;;;;;;;;5093654;28;20044;-71
2022/05/22 06:56:40;;;;;;;10.15;3.88;;;;;;;;;;5094707;28;20065;-71
2022/05/22 06:59:05;;;;;;;7.40;3.40;;;29.80;49.80;;;;;;5094425;28;20048;-74
2022/05/22 07:01:31;;;;;;;10.18;3.72;;;;;;;;;;5093285;28;20063;-72
2022/05/22 07:03:57;;;;;;;9.50;4.15;;;30.10;43.30;;;;;;5094598;28;20489;-72
2022/05/22 07:06:23;;;;;;;8.18;3.47;;;30.10;43.50;;;;;;5094636;28;20043;-72
2022/05/22 07:08:48;;;;;;;9.88;3.75;;;30.20;43.40;;;;;;5094680;28;20511;-72
2022/05/22 07:13:58;;;;;;;7.63;3.22;;;30.70;41.50;;;;;;5094353;28;20087;-74
2022/05/22 07:16:24;;;;;;;9.13;3.15;;;30.30;41.80;;;;;;5096074;28;20048;-74
2022/05/22 07:18:50;;;;;;;10.98;3.60;;;30.80;40.70;;;;;;5094489;28;20122;-74
2022/05/22 07:21:15;;;;;;;15.35;3.67;;;31.00;40.10;;;;;;5094110;28;20040;-74
2022/05/22 07:23:41;;;;;;;9.50;3.88;;;30.90;40.20;;;;;;5094236;28;20048;-74
2022/05/22 07:26:07;;;;;;;8.45;3.47;;;30.80;40.30;;;;;;5092958;28;20052;-74
2022/05/22 07:28:33;;;;;;;7.10;3.28;;;30.70;40.70;;;;;;5093945;28;20515;-74
2022/05/22 07:30:58;;;;;;;8.20;3.00;;;31.10;40.30;;;;;;5092983;28;20044;-75
2022/05/22 07:33:24;;;;;;;9.35;3.83;;;31.00;39.90;;;;;;5093580;28;20059;-75
2022/05/22 07:35:54;;;;;;;7.03;3.08;;;31.60;39.20;;;;;;5093986;28;20043;-74
2022/05/22 07:38:22;;;;;;;9.05;3.90;;;31.60;38.90;;;;;;5092723;28;20084;-74
2022/05/22 07:40:48;;;;;;;7.82;3.38;;;31.70;38.70;;;;;;5093867;28;20044;-74
2022/05/22 07:43:14;;;;;;;8.23;3.30;;;31.80;38.10;;;;;;5093261;28;20418;-75
2022/05/22 07:45:40;;;;;;;8.50;3.28;;;31.80;37.70;;;;;;5092980;28;20059;-75
2022/05/22 07:48:06;;;;;;;10.73;3.80;;;31.60;38.50;;;;;;5092870;28;20052;-76
2022/05/22 07:50:31;;;;;;;8.00;3.63;;;31.70;38.60;;;;;;5093867;28;20055;-75
2022/05/22 07:52:57;;;;;;;9.13;3.92;;;32.00;38.20;;;;;;5093617;28;20047;-73
2022/05/22 07:55:23;;;;;;;9.73;4.07;;;32.00;37.90;;;;;;5093352;28;20451;-74
2022/05/22 07:57:49;;;;;;;8.40;3.40;;;32.20;37.00;;;;;;5093450;28;20052;-74
2022/05/22 08:00:18;;;;;;;8.57;3.28;;;32.50;36.90;;;;;;5093438;28;20397;-74
2022/05/22 08:02:44;;;;;;;9.27;3.22;;;32.50;36.30;;;;;;5092392;28;20044;-73
2022/05/22 08:05:11;;;;;;;9.13;3.63;;;32.60;36.10;;;;;;5093227;28;20404;-75
2022/05/22 08:07:37;;;;;;;8.30;3.53;;;32.60;35.80;;;;;;5076929;28;20048;-73
2022/05/22 08:10:04;;;;;;;7.80;3.35;;;32.70;35.90;;;;;;5092237;28;20385;-73
2022/05/22 08:12:36;;;;;;;7.82;3.03;;;32.60;36.10;;;;;;5092988;28;20052;-73
2022/05/22 08:15:02;;;;;;;8.32;3.35;;;32.40;35.90;;;;;;5093554;28;20051;-74
2022/05/22 08:17:27;;;;;;;8.55;2.90;;;32.30;36.60;;;;;;5093111;28;20048;-73
2022/05/22 08:19:53;;;;;;;8.13;3.28;;;32.20;36.00;;;;;;5093338;28;20484;-74
2022/05/22 08:22:19;;;;;;;8.02;3.20;;;32.30;36.30;;;;;;5091812;28;20472;-73
2022/05/22 08:24:44;;;;;;;8.57;3.40;;;32.20;36.30;;;;;;5093016;28;20040;-73
2022/05/22 08:27:10;;;;;;;7.97;2.95;;;32.30;36.20;;;;;;5092203;28;20452;-75
2022/05/22 08:29:36;;;;;;;11.10;3.83;;;31.70;36.20;;;;;;5093309;28;20048;-73
2022/05/22 08:32:02;;;;;;;10.40;4.05;;;31.60;36.60;;;;;;5093397;28;20126;-73
2022/05/22 08:34:28;;;;;;;8.63;3.22;;;31.10;37.50;;;;;;5092790;28;20036;-74
2022/05/22 08:36:54;;;;;;;9.38;3.35;;;30.60;42.30;;;;;;5092747;28;20055;-74
2022/05/22 08:39:20;;;;;;;10.95;3.10;;;;;;;;;;5091607;28;20408;-74
2022/05/22 08:41:50;;;;;;;9.88;3.00;;;;;;;;;;5092970;28;20372;-74
2022/05/22 08:44:22;;;;;;;8.73;3.13;;;27.70;65.60;;;;;;5092337;28;20091;-74
2022/05/22 08:47:03;;;;;;;10.82;3.75;;;;;;;;;;5093213;28;20044;-74
2022/05/22 08:49:47;;;;;;;8.70;2.92;;;27.10;41.80;;;;;;5092611;28;20120;-74
2022/05/22 08:52:31;;;;;;;10.55;3.90;;;26.60;43.10;;;;;;5092975;28;20481;-72
2022/05/22 08:55:07;;;;;;;9.05;3.55;;;26.40;43.00;;;;;;5092912;28;20047;-73
2022/05/22 09:00:30;;;;;;;6.95;2.72;;;25.90;47.70;;;;;;5092400;28;20040;-74
2022/05/22 09:03:05;;;;;;;12.27;3.40;;;25.40;44.20;;;;;;5092776;28;20486;-74
2022/05/22 09:05:32;;;;;;;8.65;2.90;;;25.30;45.00;;;;;;5092649;28;20044;-74
2022/05/22 09:08:16;;;;;;;7.93;2.90;;;25.10;44.50;;;;;;5092644;28;20520;-74
2022/05/22 09:11:09;;;;;;;9.05;2.95;;;24.80;45.30;;;;;;5091863;28;20052;-74
2022/05/22 09:14:00;;;;;;;10.05;3.15;;;24.60;46.30;;;;;;5092414;28;20553;-74
2022/05/22 09:16:34;;;;;;;10.57;3.90;;;24.60;47.00;;;;;;5091929;28;20095;-74
2022/05/22 09:19:03;;;;;;;10.70;3.33;;;24.70;46.90;;;;;;5092546;28;20055;-74
2022/05/22 09:21:56;;;;;;;11.57;3.30;;;24.70;47.30;;;;;;5092348;28;20044;-74
2022/05/22 09:24:42;;;;;;;9.97;3.20;;;24.80;47.60;;;;;;5092310;28;20377;-75
2022/05/22 09:27:14;;;;;;;8.90;3.50;;;24.80;47.10;;;;;;5092452;28;20502;-74
2022/05/22 09:29:50;;;;;;;11.77;3.67;;;24.80;47.70;;;;;;5092286;28;20044;-74
2022/05/22 09:32:37;;;;;;;10.20;2.90;;;24.80;47.20;;;;;;5091548;28;20105;-71
2022/05/22 09:35:34;;;;;;;7.80;3.30;;;24.80;47.50;;;;;;5092637;28;20117;-73
2022/05/22 09:38:02;;;;;;;12.90;3.33;;;24.80;46.90;;;;;;5092650;28;20131;-79
2022/05/22 09:40:49;;;;;;;10.83;3.13;;;24.80;46.40;;;;;;5091210;28;20089;-72
2022/05/22 09:43:21;;;;;;;10.10;3.50;;;24.40;46.30;;;;;;5090956;28;20201;-72
2022/05/22 09:45:53;;;;;;;12.13;3.13;;;;;;;;;;5092470;28;20052;-73
2022/05/22 09:48:51;;;;;;;11.97;3.83;;;24.20;76.40;;;;;;5093410;28;20130;-74
2022/05/22 09:51:17;;;;;;;8.73;2.70;;;24.00;48.40;;;;;;5096158;28;20052;-74
2022/05/22 09:54:01;;;;;;;8.77;2.73;;;24.00;48.20;;;;;;5094687;28;20112;-72
2022/05/22 09:56:49;;;;;;;7.03;2.45;;;24.00;48.10;;;;;;5095670;28;20131;-74
2022/05/22 09:59:49;;;;;;;7.73;2.60;;;23.90;48.00;;;;;;5096441;28;20104;-74
2022/05/22 10:02:24;;;;;;;10.20;3.37;;;24.00;47.60;;;;;;5095909;28;20052;-73
2022/05/22 10:04:52;;;;;;;8.87;2.77;;;;;;;;;;5095661;28;20044;-70
2022/05/22 10:07:35;;;;;;;11.20;3.20;;;23.90;47.40;;;;;;5094889;28;20055;-73
2022/05/22 10:10:31;;;;;;;9.50;2.77;;;23.80;48.20;;;;;;5095931;28;20040;-74
2022/05/22 10:13:25;;;;;;;6.93;2.70;;;23.70;47.90;;;;;;5094691;28;20048;-74
2022/05/22 10:16:13;;;;;;;7.15;2.17;;;23.80;47.80;;;;;;5094853;28;20044;-74
2022/05/22 10:18:50;;;;;;;7.63;2.80;;;23.80;47.50;;;;;;5095305;28;20130;-74
2022/05/22 10:21:45;;;;;;;8.90;2.50;;;23.80;47.30;;;;;;5094299;28;20106;-73
2022/05/22 10:24:14;;;;;;;8.88;3.35;;;23.90;46.30;;;;;;5083752;28;20063;-74
2022/05/22 10:27:09;;;;;;;11.17;3.30;;;23.80;46.80;;;;;;5095185;28;20048;-75
2022/05/22 10:30:01;;;;;;;10.88;2.13;;;23.70;46.00;;;;;;5093994;28;20076;-70
2022/05/22 10:32:27;;;;;;;10.63;2.47;;;23.50;47.30;;;;;;5095109;28;20503;-71
2022/05/22 10:35:14;;;;;;;9.77;3.00;;;23.50;48.10;;;;;;5095644;28;20048;-72
2022/05/22 10:37:58;;;;;;;8.63;2.90;;;;;;;;;;5095015;28;20043;-72
2022/05/22 10:40:25;;;;;;;6.78;2.28;;;23.20;46.30;;;;;;5095082;28;20094;-73
2022/05/22 10:42:56;;;;;;;8.40;2.37;;;23.20;48.20;;;;;;5094804;28;20440;-71
2022/05/22 10:45:33;;;;;;;7.90;2.57;;;23.10;48.80;;;;;;5095126;28;20062;-71
2022/05/22 10:48:17;;;;;;;7.67;2.57;;;23.20;49.00;;;;;;5095117;28;20044;-71
2022/05/22 10:50:55;;;;;;;8.80;2.77;;;23.10;49.50;;;;;;5094686;28;20130;-71
2022/05/22 10:53:48;;;;;;;9.33;2.83;;;23.10;49.50;;;;;;5094052;28;20185;-71
2022/05/22 10:56:14;;;;;;;8.40;2.30;;;22.90;48.90;;;;;;5095156;28;20110;-71
2022/05/22 10:58:51;;;;;;;7.40;2.30;;;22.80;49.60;;;;;;5094108;28;20507;-72
2022/05/22 11:01:20;;;;;;;8.83;2.30;;;22.70;49.80;;;;;;5078462;28;20496;-73
2022/05/22 11:03:47;;;;;;;6.40;2.30;;;22.70;54.40;;;;;;5094386;28;20444;-76
2022/05/22 11:06:20;;;;;;;7.43;2.37;;;22.70;59.60;;;;;;5094951;28;20044;-73
2022/05/22 11:08:54;;;;;;;8.63;2.80;;;22.80;56.60;;;;;;5094292;28;20157;-73
2022/05/22 11:11:27;;;;;;;7.20;2.13;;;22.70;54.90;;;;;;5076757;28;20075;-74
2022/05/22 11:14:03;;;;;;;6.60;2.33;;;22.60;49.90;;;;;;5094190;28;20044;-74
2022/05/22 11:16:29;;;;;;;7.77;2.20;;;22.60;50.40;;;;;;5093763;28;20476;-72
2022/05/22 11:19:09;;;;;;;6.70;2.67;;;22.60;50.40;;;;;;5094222;28;20231;-73
2022/05/22 11:21:49;;;;;;;7.83;2.40;;;22.50;50.10;;;;;;5094121;28;20404;-74
2022/05/22 11:24:17;;;;;;;10.07;2.30;;;22.50;51.30;;;;;;5094172;28;20502;-74
2022/05/22 11:27:23;;;;;;;6.73;1.97;;;22.40;50.80;;;;;;5075966;28;20056;-74
2022/05/22 11:30:11;;;;;;;8.20;2.57;;;22.50;51.20;;;;;;5093987;28;20075;-75
2022/05/22 11:32:55;;;;;;;8.17;2.53;;;22.50;50.30;;;;;;5093721;28;20090;-75
2022/05/22 11:35:42;;;;;;;7.68;2.80;;;22.50;50.70;;;;;;5094226;28;20043;-75
2022/05/22 11:38:29;;;;;;;10.77;2.67;;;22.50;50.40;;;;;;5094315;28;20402;-74
2022/05/22 11:41:16;;;;;;;9.83;2.40;;;22.50;50.50;;;;;;5093598;28;20048;-75
2022/05/22 11:43:56;;;;;;;7.13;3.00;;;22.50;50.60;;;;;;5093451;28;20139;-76
2022/05/22 11:46:53;;;;;;;10.00;2.90;;;22.70;50.90;;;;;;5093939;28;20531;-75
2022/05/22 11:49:26;;;;;;;6.03;2.40;;;22.70;49.80;;;;;;5091929;28;20050;-73
2022/05/22 11:51:52;;;;;;;6.20;2.10;;;22.70;50.20;;;;;;5093432;28;20043;-73
2022/05/22 11:54:32;;;;;;;5.90;2.00;;;22.70;49.60;;;;;;5093214;28;20549;-73
2022/05/22 11:57:10;;;;;;;6.73;2.20;;;22.70;49.40;;;;;;5093276;28;20052;-73
2022/05/22 12:00:01;;;;;;;7.07;2.07;;;22.60;49.50;;;;;;5093312;28;20496;-73
2022/05/22 12:02:44;;;;;;;7.97;2.30;;;22.50;49.50;;;;;;5093210;28;20492;-73
2022/05/22 12:05:38;;;;;;;8.90;2.67;;;22.50;50.00;;;;;;5093700;28;20036;-74
2022/05/22 12:08:23;;;;;;;10.80;3.27;;;22.50;51.10;;;;;;5092096;28;20055;-74
2022/05/22 12:11:10;;;;;;;6.53;2.53;;;22.50;50.40;;;;;;5092208;28;20601;-74
2022/05/22 12:13:55;;;;;;;8.23;2.90;;;22.70;51.10;;;;;;5093166;28;20054;-73
2022/05/22 12:16:23;;;;;;;;;;;22.70;50.30;;;;;;5093338;28;20066;-73
2022/05/22 12:19:11;;;;;;;8.20;2.60;;;22.70;50.40;;;;;;5092800;28;20436;-77
2022/05/22 12:21:55;;;;;;;8.17;2.40;;;22.70;50.00;;;;;;5093063;28;20047;-76
2022/05/22 12:24:29;;;;;;;6.00;2.10;;;22.70;49.70;;;;;;5091989;28;20048;-72
2022/05/22 12:26:55;;;;;;;6.95;2.17;;;22.70;49.20;;;;;;5092727;28;20412;-75
2022/05/22 12:29:31;;;;;;;8.37;2.40;;;22.60;49.10;;;;;;5093340;28;20075;-74
2022/05/22 12:31:59;;;;;;;7.43;2.60;;;22.60;49.00;;;;;;5093033;28;20044;-73
2022/05/22 12:34:54;;;;;;;7.70;2.87;;;22.50;49.70;;;;;;5093199;28;20484;-74
2022/05/22 12:37:37;;;;;;;6.40;2.00;;;22.50;48.50;;;;;;5091776;28;20341;-74
2022/05/22 12:40:25;;;;;;;6.57;1.97;;;22.40;49.40;;;;;;5092912;28;20048;-74
2022/05/22 12:42:56;;;;;;;9.80;2.23;;;22.50;49.00;;;;;;5092564;28;20044;-74
2022/05/22 12:45:24;;;;;;;5.87;2.40;;;22.50;49.10;;;;;;5092893;28;20047;-74
2022/05/22 12:47:52;;;;;;;7.03;2.60;;;22.50;49.00;;;;;;5092478;28;20476;-71
2022/05/22 12:50:43;;;;;;;6.30;2.00;;;22.50;49.20;;;;;;5092912;28;20047;-70
2022/05/22 12:53:18;;;;;;;6.23;2.03;;;22.50;49.60;;;;;;5092891;28;20054;-71
2022/05/22 12:55:45;;;;;;;8.50;2.33;;;22.30;49.20;;;;;;5092743;28;20560;-72
2022/05/22 12:58:28;;;;;;;9.27;2.37;;;22.20;50.20;;;;;;5092737;28;20122;-72
2022/05/22 13:00:55;;;;;;;9.77;2.77;;;22.30;74.00;;;;;;5092606;28;20040;-71
2022/05/22 13:03:30;;;;;;;7.40;2.20;;;22.20;72.90;;;;;;5092744;28;20122;-72
2022/05/22 13:06:05;;;;;;;8.30;2.47;;;22.20;52.20;;;;;;5092549;28;20048;-72
2022/05/22 13:08:47;;;;;;;7.17;2.33;;;22.10;52.40;;;;;;5092635;28;20044;-72
2022/05/22 13:11:17;;;;;;;7.33;2.13;;;22.20;51.50;;;;;;5091942;28;20052;-73
2022/05/22 13:13:53;;;;;;;6.10;2.00;;;22.00;51.50;;;;;;5092774;28;20087;-72
2022/05/22 13:16:27;;;;;;;8.07;2.33;;;21.90;51.20;;;;;;5092585;28;20040;-73
2022/05/22 13:18:53;;;;;;;5.85;1.88;;;21.90;51.90;;;;;;5092267;28;20445;-73
2022/05/22 13:21:37;;;;;;;7.60;2.00;;;21.70;51.90;;;;;;5091752;28;20052;-73
2022/05/22 13:24:23;;;;;;;6.68;2.22;;;21.90;52.10;;;;;;5096484;28;20051;-73
2022/05/22 13:26:55;;;;;;;8.47;2.90;;;21.80;52.00;;;;;;5096336;28;20052;-74